Time;durP1;ratioP1;P1;durP2;ratioP2;P2;SDS_P1;SDS_P2;PMS_P1;PMS_P2;Temp;Humidity;BMP_temperature;BMP_pressure;BME280_temperature;BME280_humidity;BME280_pressure;Samples;Min_cycle;Max_cycle;Signal;HPM_P1;HPM_P2
2022/07/03 00:00:37;;;;;;;5.07;3.60;;;17.80;99.90;;;;;;5036783;28;20042;-78
2022/07/03 00:03:03;;;;;;;6.53;4.10;;;17.70;99.90;;;;;;5006755;28;20073;-78
2022/07/03 00:05:29;;;;;;;4.72;3.67;;;17.60;99.90;;;;;;5025736;28;20072;-78
2022/07/03 00:07:55;;;;;;;5.75;4.85;;;17.60;99.90;;;;;;5016045;28;20042;-78
2022/07/03 00:10:21;;;;;;;5.65;4.10;;;17.60;99.90;;;;;;4992669;28;20034;-78
2022/07/03 00:12:46;;;;;;;4.03;3.63;;;17.50;99.90;;;;;;5008648;28;20092;-78
2022/07/03 00:15:12;;;;;;;4.05;3.63;;;17.50;99.90;;;;;;4997328;28;20041;-78
2022/07/03 00:17:38;;;;;;;5.45;3.30;;;17.50;99.90;;;;;;5007364;28;20072;-78
2022/07/03 00:20:04;;;;;;;8.30;3.55;;;17.50;99.90;;;;;;5029105;28;20133;-78
2022/07/03 00:22:36;;;;;;;4.18;3.63;;;17.40;99.90;;;;;;5012619;28;20037;-78
2022/07/03 00:25:06;;;;;;;;;;;17.30;99.90;;;;;;5042871;28;20399;-78
2022/07/03 00:27:33;;;;;;;5.70;3.55;;;17.30;99.90;;;;;;4996156;28;20004;-78
2022/07/03 00:30:01;;;;;;;3.60;3.30;;;17.20;99.90;;;;;;5028910;28;20046;-78
2022/07/03 00:32:28;;;;;;;6.88;3.83;;;17.20;99.90;;;;;;5012599;28;20042;-78
2022/07/03 00:34:56;;;;;;;5.82;4.13;;;17.20;99.90;;;;;;5000420;28;20034;-78
2022/07/03 00:37:22;;;;;;;4.30;3.90;;;17.10;99.90;;;;;;5015591;28;20084;-78
2022/07/03 00:39:48;;;;;;;5.50;3.78;;;17.10;99.90;;;;;;5014297;28;20053;-78
2022/07/03 00:42:15;;;;;;;4.82;4.03;;;17.10;99.90;;;;;;5002266;28;20503;-78
2022/07/03 00:44:49;;;;;;;4.63;3.60;;;17.10;99.90;;;;;;5020899;28;20037;-79
2022/07/03 00:47:18;;;;;;;5.25;3.58;;;17.10;99.90;;;;;;5035325;28;20072;-79
2022/07/03 00:49:48;;;;;;;3.85;3.53;;;17.10;99.90;;;;;;5041919;28;20041;-78
2022/07/03 00:52:15;;;;;;;4.05;3.45;;;17.10;99.90;;;;;;5041436;28;20060;-78
2022/07/03 00:54:55;;;;;;;4.43;3.70;;;17.10;99.90;;;;;;5028871;28;20044;-79
2022/07/03 00:57:23;;;;;;;4.18;3.55;;;17.10;99.90;;;;;;5024663;28;20417;-78
2022/07/03 00:59:49;;;;;;;4.72;3.95;;;17.10;99.90;;;;;;5014466;28;20044;-78
2022/07/03 01:02:23;;;;;;;7.13;3.75;;;17.10;99.90;;;;;;5011233;28;20100;-79
2022/07/03 01:04:59;;;;;;;4.72;3.53;;;17.10;99.90;;;;;;5049102;28;20081;-78
2022/07/03 01:07:43;;;;;;;4.63;3.78;;;17.10;99.90;;;;;;5028317;28;20448;-79
2022/07/03 01:10:56;;;;;;;5.13;2.80;;;17.10;99.90;;;;;;5031084;28;20038;-79
2022/07/03 01:13:45;;;;;;;5.82;3.10;;;17.10;99.90;;;;;;4953428;28;20577;-79
2022/07/03 01:16:26;;;;;;;3.65;2.90;;;17.10;99.90;;;;;;5001176;28;20050;-79
2022/07/03 01:19:38;;;;;;;5.75;3.00;;;17.00;99.90;;;;;;5019659;28;20051;-78
2022/07/03 01:22:26;;;;;;;5.68;2.63;;;16.90;99.90;;;;;;5034843;28;20103;-78
2022/07/03 01:25:07;;;;;;;5.22;2.95;;;17.00;99.90;;;;;;5025274;28;20565;-78
2022/07/03 01:27:58;;;;;;;5.95;2.97;;;16.90;99.90;;;;;;5020295;28;20447;-79
2022/07/03 01:30:29;;;;;;;4.93;2.85;;;16.90;99.90;;;;;;5022635;28;20042;-79
2022/07/03 01:33:18;;;;;;;4.65;2.90;;;16.90;99.90;;;;;;5043190;28;20041;-79
2022/07/03 01:36:00;;;;;;;4.47;2.75;;;16.80;99.90;;;;;;5019453;28;20377;-79
2022/07/03 01:38:31;;;;;;;4.93;3.13;;;16.80;99.90;;;;;;5011919;28;20531;-80
2022/07/03 01:40:58;;;;;;;3.15;2.70;;;16.80;99.90;;;;;;5054960;28;20053;-79
2022/07/03 01:43:36;;;;;;;5.90;2.95;;;16.70;99.90;;;;;;5011093;28;20050;-79
2022/07/03 01:46:03;;;;;;;3.83;3.03;;;16.70;99.90;;;;;;5041802;28;20049;-79
2022/07/03 01:48:31;;;;;;;3.13;2.83;;;16.70;99.90;;;;;;5040077;28;20048;-79
2022/07/03 01:50:58;;;;;;;5.47;2.95;;;16.60;99.90;;;;;;5017206;28;20042;-79
2022/07/03 01:53:26;;;;;;;3.58;3.17;;;16.60;99.90;;;;;;5037878;28;20040;-80
2022/07/03 01:55:57;;;;;;;4.20;3.03;;;16.50;99.90;;;;;;5020527;28;20037;-80
2022/07/03 01:58:23;;;;;;;3.72;3.15;;;16.40;99.90;;;;;;5007436;28;20037;-79
2022/07/03 02:01:03;;;;;;;6.38;3.40;;;16.40;99.90;;;;;;5035482;28;20074;-79
2022/07/03 02:03:34;;;;;;;3.40;3.10;;;16.40;99.90;;;;;;5006849;28;20094;-79
2022/07/03 02:06:17;;;;;;;5.05;3.20;;;16.30;99.90;;;;;;5023938;28;20139;-79
2022/07/03 02:08:50;;;;;;;;;;;16.20;99.90;;;;;;5001924;28;20033;-79
2022/07/03 02:11:22;;;;;;;3.75;3.28;;;16.20;99.90;;;;;;5029865;28;19925;-79
2022/07/03 02:14:15;;;;;;;4.90;3.13;;;16.10;99.90;;;;;;5037437;28;20045;-79
2022/07/03 02:17:21;;;;;;;5.93;3.05;;;16.00;99.90;;;;;;5018406;28;20041;-79
2022/07/03 02:19:55;;;;;;;3.95;3.13;;;16.00;99.90;;;;;;5017284;28;20045;-80
2022/07/03 02:22:32;;;;;;;4.13;3.17;;;16.00;99.90;;;;;;5019685;28;20064;-80
2022/07/03 02:25:06;;;;;;;5.00;3.85;;;15.90;99.90;;;;;;5016249;28;20057;-79
2022/07/03 02:27:40;;;;;;;4.88;3.72;;;15.80;99.90;;;;;;5041492;28;20038;-80
2022/07/03 02:30:06;;;;;;;4.85;3.45;;;15.80;99.90;;;;;;5041889;28;20608;-80
2022/07/03 02:32:37;;;;;;;4.07;3.55;;;15.70;99.90;;;;;;5001332;28;20038;-80
2022/07/03 02:35:10;;;;;;;4.53;3.13;;;15.60;99.90;;;;;;5029261;28;20037;-80
2022/07/03 02:37:53;;;;;;;8.13;3.75;;;15.60;99.90;;;;;;5040194;28;20068;-79
2022/07/03 02:40:21;;;;;;;;;;;15.50;99.90;;;;;;5015690;28;20057;-80
2022/07/03 02:43:30;;;;;;;6.75;4.28;;;15.50;99.90;;;;;;5029629;28;19921;-80
2022/07/03 02:46:48;;;;;;;5.43;4.53;;;15.40;99.90;;;;;;5033854;28;20057;-79
2022/07/03 02:48:56;;;;;;;4.93;3.85;;;15.40;99.90;;;;;;5051568;28;20493;-79
2022/07/03 02:51:23;;;;;;;9.30;4.75;;;15.30;99.90;;;;;;5005187;28;20037;-79
2022/07/03 02:54:01;;;;;;;4.57;4.18;;;15.30;99.90;;;;;;5031587;28;20498;-79
2022/07/03 02:56:59;;;;;;;6.80;4.80;;;15.20;99.90;;;;;;5009372;28;20040;-79
2022/07/03 02:59:33;;;;;;;5.97;4.30;;;15.20;99.90;;;;;;5054611;28;20068;-80
2022/07/03 03:02:21;;;;;;;5.32;4.03;;;15.20;99.90;;;;;;5029283;28;20048;-80
2022/07/03 03:05:01;;;;;;;4.55;4.15;;;15.20;99.90;;;;;;5015229;28;20160;-79
2022/07/03 03:07:34;;;;;;;5.80;4.20;;;15.20;99.90;;;;;;5034711;28;20038;-80
2022/07/03 03:09:59;;;;;;;5.55;4.60;;;15.10;99.90;;;;;;5012923;28;20064;-79
2022/07/03 03:12:36;;;;;;;5.57;4.68;;;15.10;99.90;;;;;;5018988;28;20539;-79
2022/07/03 03:15:04;;;;;;;5.43;4.38;;;15.00;99.90;;;;;;5009912;28;20037;-80
2022/07/03 03:17:42;;;;;;;9.13;5.03;;;15.00;99.90;;;;;;5036207;28;20061;-79
2022/07/03 03:20:09;;;;;;;7.00;4.47;;;14.90;99.90;;;;;;5029112;28;20039;-80
2022/07/03 03:22:56;;;;;;;7.72;4.45;;;14.90;99.90;;;;;;5002941;28;20117;-80
2022/07/03 03:25:22;;;;;;;9.20;4.60;;;14.80;99.90;;;;;;5058328;28;20391;-80
2022/07/03 03:27:47;;;;;;;15.95;5.40;;;14.80;99.90;;;;;;5022452;28;20044;-81
2022/07/03 03:30:14;;;;;;;5.60;4.18;;;14.80;99.90;;;;;;4969289;28;20073;-80
2022/07/03 03:32:41;;;;;;;5.60;4.40;;;14.80;99.90;;;;;;5020213;28;20033;-80
2022/07/03 03:35:09;;;;;;;4.80;4.30;;;14.70;99.90;;;;;;5007022;28;20116;-80
2022/07/03 03:37:34;;;;;;;5.72;4.78;;;14.70;99.90;;;;;;5021806;28;20462;-79
2022/07/03 03:40:02;;;;;;;6.63;4.95;;;14.70;99.90;;;;;;5008980;28;20133;-80
2022/07/03 03:42:28;;;;;;;6.95;5.10;;;14.70;99.90;;;;;;5019831;28;20049;-80
2022/07/03 03:44:54;;;;;;;9.30;6.00;;;14.80;99.90;;;;;;5008661;28;20544;-79
2022/07/03 03:47:20;;;;;;;7.30;5.22;;;14.70;99.90;;;;;;5024764;28;20100;-80
2022/07/03 03:49:45;;;;;;;6.18;4.88;;;14.60;99.90;;;;;;5017254;28;20292;-80
2022/07/03 03:52:11;;;;;;;6.13;5.10;;;14.60;99.90;;;;;;5025540;28;20040;-79
2022/07/03 03:54:37;;;;;;;5.60;4.93;;;14.70;99.90;;;;;;4999495;28;20071;-79
2022/07/03 03:57:23;;;;;;;6.22;4.85;;;14.70;99.90;;;;;;5016225;28;20052;-80
2022/07/03 03:59:49;;;;;;;7.07;5.50;;;14.70;99.90;;;;;;5062994;28;20038;-80
2022/07/03 04:02:16;;;;;;;6.63;4.70;;;14.80;99.90;;;;;;5021949;28;20052;-80
2022/07/03 04:04:42;;;;;;;7.88;5.72;;;14.80;99.90;;;;;;5027753;28;20041;-80
2022/07/03 04:07:08;;;;;;;8.77;6.97;;;14.80;99.90;;;;;;5051900;28;20048;-80
2022/07/03 04:09:34;;;;;;;9.43;6.25;;;14.90;99.90;;;;;;5049532;28;20041;-80
2022/07/03 04:12:00;;;;;;;7.82;6.43;;;14.90;99.90;;;;;;5002887;28;20034;-80
2022/07/03 04:14:26;;;;;;;7.38;6.60;;;15.00;99.90;;;;;;5036527;28;20399;-80
2022/07/03 04:16:51;;;;;;;7.72;6.93;;;15.00;99.90;;;;;;5037458;28;20033;-80
2022/07/03 04:19:17;;;;;;;8.68;7.07;;;15.10;99.90;;;;;;5035546;28;20040;-80
2022/07/03 04:21:43;;;;;;;9.07;7.28;;;15.10;99.90;;;;;;5015543;28;20046;-80
2022/07/03 04:24:09;;;;;;;9.02;8.05;;;15.20;99.90;;;;;;5012846;28;20033;-80
2022/07/03 04:26:35;;;;;;;8.70;7.57;;;15.20;99.90;;;;;;5001972;28;20050;-80
2022/07/03 04:29:00;;;;;;;7.88;7.07;;;15.40;99.90;;;;;;5012493;28;20044;-79
2022/07/03 04:31:26;;;;;;;9.43;7.40;;;15.40;99.90;;;;;;5044570;28;20045;-80
2022/07/03 04:33:52;;;;;;;10.50;7.28;;;15.40;99.90;;;;;;5005164;28;20041;-80
2022/07/03 04:36:18;;;;;;;8.50;7.07;;;15.50;99.90;;;;;;5041311;28;20037;-80
2022/07/03 04:38:44;;;;;;;7.80;7.05;;;15.60;99.90;;;;;;5031483;28;20050;-80
2022/07/03 04:41:09;;;;;;;7.32;6.53;;;15.60;99.90;;;;;;5023692;28;20057;-80
2022/07/03 04:43:38;;;;;;;7.15;6.30;;;15.70;99.90;;;;;;5037063;28;20095;-80
2022/07/03 04:46:04;;;;;;;8.02;6.40;;;15.80;99.90;;;;;;5038730;28;20045;-80
2022/07/03 04:48:30;;;;;;;7.22;6.50;;;15.80;99.90;;;;;;5028210;28;20194;-80
2022/07/03 04:50:56;;;;;;;7.35;6.10;;;15.90;99.90;;;;;;5023453;28;20076;-80
2022/07/03 04:53:22;;;;;;;6.68;5.97;;;15.90;99.90;;;;;;5019092;28;20128;-79
2022/07/03 04:55:48;;;;;;;10.95;6.38;;;16.00;99.90;;;;;;5002342;28;20464;-79
2022/07/03 04:58:13;;;;;;;8.45;6.85;;;16.00;99.90;;;;;;5011549;28;20034;-80
2022/07/03 05:00:42;;;;;;;11.02;6.70;;;16.00;99.90;;;;;;5032944;28;20809;-79
2022/07/03 05:03:07;;;;;;;8.20;6.18;;;16.10;99.90;;;;;;5013949;28;20041;-80
2022/07/03 05:05:33;;;;;;;7.20;5.90;;;16.10;99.90;;;;;;5014063;28;20041;-80
2022/07/03 05:08:00;;;;;;;6.55;5.72;;;16.10;99.90;;;;;;5023126;28;20065;-80
2022/07/03 05:10:26;;;;;;;6.45;5.82;;;16.10;99.90;;;;;;5043887;28;20102;-80
2022/07/03 05:12:53;;;;;;;7.00;6.30;;;16.10;99.90;;;;;;5045133;28;20033;-80
2022/07/03 05:15:19;;;;;;;8.90;6.72;;;16.00;99.90;;;;;;5022977;28;20037;-79
2022/07/03 05:17:45;;;;;;;8.10;7.03;;;16.00;99.90;;;;;;5039482;28;20183;-79
2022/07/03 05:20:29;;;;;;;7.95;6.68;;;16.00;99.90;;;;;;5028546;28;20033;-79
2022/07/03 05:22:59;;;;;;;7.53;6.60;;;15.90;99.90;;;;;;5029379;28;20041;-79
2022/07/03 05:25:26;;;;;;;9.25;7.25;;;15.90;99.90;;;;;;5015650;28;20124;-80
2022/07/03 05:27:55;;;;;;;7.45;6.63;;;15.90;99.90;;;;;;5019652;28;20068;-79
2022/07/03 05:30:22;;;;;;;11.20;7.57;;;15.80;99.90;;;;;;5001796;28;20044;-79
2022/07/03 05:32:49;;;;;;;7.20;6.40;;;15.80;99.90;;;;;;5021088;28;20124;-79
2022/07/03 05:35:14;;;;;;;8.25;6.50;;;15.80;99.90;;;;;;5012520;28;20037;-80
2022/07/03 05:37:40;;;;;;;7.25;6.55;;;15.80;99.90;;;;;;5022868;28;20045;-79
2022/07/03 05:40:07;;;;;;;9.45;6.30;;;15.80;99.90;;;;;;5024752;28;20049;-80
2022/07/03 05:42:33;;;;;;;7.40;6.50;;;15.80;99.90;;;;;;5011177;28;20057;-79
2022/07/03 05:44:59;;;;;;;11.27;6.47;;;15.80;99.90;;;;;;5034529;28;20087;-79
2022/07/03 05:47:25;;;;;;;7.30;6.55;;;15.90;99.90;;;;;;4996291;28;20169;-79
2022/07/03 05:49:50;;;;;;;9.27;6.13;;;15.90;99.90;;;;;;5030838;28;20465;-79
2022/07/03 05:52:17;;;;;;;9.32;6.13;;;15.90;99.90;;;;;;4997950;28;20041;-79
2022/07/03 05:54:43;;;;;;;9.88;6.30;;;16.00;99.90;;;;;;5013751;28;20092;-79
2022/07/03 05:57:09;;;;;;;8.55;5.63;;;16.00;99.90;;;;;;4994240;28;20041;-79
2022/07/03 05:59:35;;;;;;;6.43;5.70;;;16.10;99.90;;;;;;5016231;28;20034;-79
2022/07/03 06:02:01;;;;;;;6.57;5.78;;;16.20;99.90;;;;;;5050538;28;20041;-79
2022/07/03 06:04:27;;;;;;;8.52;5.75;;;16.30;99.90;;;;;;5023855;28;20045;-79
2022/07/03 06:06:54;;;;;;;9.25;5.28;;;16.40;99.90;;;;;;5018252;28;20518;-79
2022/07/03 06:09:20;;;;;;;8.23;5.78;;;16.40;99.90;;;;;;5031352;28;20045;-79
2022/07/03 06:11:47;;;;;;;6.43;5.07;;;16.60;99.90;;;;;;5013015;28;20044;-79
2022/07/03 06:14:13;;;;;;;5.65;4.70;;;16.70;99.90;;;;;;5002409;28;20084;-79
2022/07/03 06:16:39;;;;;;;10.77;3.92;;;16.80;99.90;;;;;;5019532;28;20049;-79
2022/07/03 06:19:05;;;;;;;5.78;3.75;;;16.90;99.90;;;;;;5008779;28;20052;-79
2022/07/03 06:21:32;;;;;;;6.50;3.78;;;17.00;99.90;;;;;;5014249;28;20121;-79
2022/07/03 06:23:58;;;;;;;6.65;3.90;;;17.10;99.90;;;;;;5009893;28;20550;-79
2022/07/03 06:26:23;;;;;;;4.75;3.55;;;17.30;99.90;;;;;;4996455;28;20128;-79
2022/07/03 06:28:49;;;;;;;7.32;3.50;;;17.40;99.90;;;;;;5014489;28;20285;-79
2022/07/03 06:31:15;;;;;;;9.95;3.42;;;17.50;99.90;;;;;;5045095;28;20069;-79
2022/07/03 06:33:40;;;;;;;5.90;2.90;;;17.70;99.90;;;;;;5006848;28;20410;-79
2022/07/03 06:36:06;;;;;;;5.68;2.92;;;17.80;99.90;;;;;;5033682;28;20044;-79
2022/07/03 06:38:32;;;;;;;3.42;2.53;;;17.80;99.90;;;;;;5002748;28;20037;-79
2022/07/03 06:40:58;;;;;;;4.47;2.65;;;17.90;99.90;;;;;;5018754;28;20063;-80
2022/07/03 06:43:23;;;;;;;3.10;2.75;;;18.00;99.90;;;;;;5017163;28;20058;-79
2022/07/03 06:45:49;;;;;;;3.72;2.67;;;18.10;99.90;;;;;;5021732;28;20076;-79
2022/07/03 06:48:15;;;;;;;3.38;2.38;;;18.20;99.90;;;;;;5009254;28;20049;-79
2022/07/03 06:50:41;;;;;;;5.10;2.25;;;18.30;99.90;;;;;;5013790;28;20046;-80
2022/07/03 06:53:07;;;;;;;3.55;2.35;;;18.50;99.90;;;;;;5014384;28;20044;-79
2022/07/03 06:55:32;;;;;;;6.65;2.50;;;18.60;99.90;;;;;;5013056;28;20068;-79
2022/07/03 06:57:58;;;;;;;4.70;2.30;;;18.70;99.90;;;;;;5009401;28;20092;-79
2022/07/03 07:00:24;;;;;;;5.18;2.15;;;18.80;99.90;;;;;;5002281;28;20072;-80
2022/07/03 07:02:50;;;;;;;3.33;1.83;;;19.00;99.90;;;;;;5042213;28;20037;-79
2022/07/03 07:05:15;;;;;;;3.97;1.95;;;19.10;99.90;;;;;;4974960;28;20502;-79
2022/07/03 07:07:41;;;;;;;5.88;2.00;;;19.20;99.90;;;;;;5019504;28;20116;-79
2022/07/03 07:10:07;;;;;;;3.67;1.80;;;19.30;99.90;;;;;;5037901;28;20514;-79
2022/07/03 07:12:33;;;;;;;5.28;2.08;;;19.40;99.90;;;;;;5047872;28;20563;-79
2022/07/03 07:14:59;;;;;;;3.20;1.63;;;19.50;99.90;;;;;;5012654;28;20038;-79
2022/07/03 07:17:24;;;;;;;2.28;1.42;;;19.60;99.90;;;;;;5043807;28;20036;-79
2022/07/03 07:19:50;;;;;;;6.95;1.90;;;19.80;99.90;;;;;;5002669;28;20042;-79
2022/07/03 07:22:16;;;;;;;5.07;2.22;;;19.90;99.90;;;;;;5039379;28;20131;-79
2022/07/03 07:24:42;;;;;;;2.90;1.55;;;19.90;99.90;;;;;;4999790;28;20045;-79
2022/07/03 07:27:08;;;;;;;3.75;1.88;;;20.10;99.90;;;;;;5024995;28;20047;-79
2022/07/03 07:29:33;;;;;;;4.28;1.83;;;20.20;99.90;;;;;;5012475;28;20041;-79
2022/07/03 07:31:59;;;;;;;4.45;1.80;;;20.30;99.90;;;;;;5012177;28;20029;-79
2022/07/03 07:34:25;;;;;;;4.43;1.60;;;20.30;99.90;;;;;;5020594;28;20042;-79
2022/07/03 07:36:51;;;;;;;3.63;2.00;;;20.50;99.90;;;;;;5024081;28;20048;-79
2022/07/03 07:39:16;;;;;;;4.45;1.80;;;20.50;99.90;;;;;;5021692;28;20781;-79
2022/07/03 07:41:42;;;;;;;3.50;1.80;;;20.60;99.90;;;;;;5021912;28;20136;-79
2022/07/03 07:44:08;;;;;;;5.32;1.70;;;20.80;99.90;;;;;;5024552;28;20038;-79
2022/07/03 07:46:34;;;;;;;5.03;2.30;;;20.80;99.90;;;;;;5017952;28;20053;-79
2022/07/03 07:48:59;;;;;;;2.33;1.83;;;20.80;99.90;;;;;;5019993;28;20092;-79
2022/07/03 07:51:25;;;;;;;2.83;1.85;;;20.80;99.90;;;;;;4993325;28;20045;-79
2022/07/03 07:53:52;;;;;;;5.53;2.15;;;20.90;99.90;;;;;;5033562;28;20044;-79
2022/07/03 07:56:18;;;;;;;3.90;1.80;;;21.00;99.90;;;;;;5006549;28;20042;-79
2022/07/03 07:58:44;;;;;;;4.90;2.00;;;21.10;99.90;;;;;;5010949;28;20123;-79
2022/07/03 08:06:38;;;;;;;4.88;2.08;;;21.20;99.90;;;;;;5020123;28;20567;-80
2022/07/03 08:09:03;;;;;;;6.65;1.90;;;21.30;99.90;;;;;;5015225;28;20037;-79
2022/07/03 08:11:29;;;;;;;3.05;1.70;;;21.50;99.90;;;;;;4980164;28;20051;-80
2022/07/03 08:13:55;;;;;;;4.93;1.95;;;21.70;99.90;;;;;;5000985;28;20029;-80
2022/07/03 08:16:20;;;;;;;2.55;1.90;;;21.90;99.90;;;;;;5014425;28;20479;-80
2022/07/03 08:18:46;;;;;;;6.13;1.90;;;22.10;99.90;;;;;;5005837;28;20045;-80
2022/07/03 08:21:12;;;;;;;4.75;2.22;;;22.20;99.90;;;;;;5020822;28;20052;-80
2022/07/03 08:23:38;;;;;;;5.38;2.10;;;22.30;99.90;;;;;;5016210;28;20033;-79
2022/07/03 08:26:04;;;;;;;3.22;1.95;;;22.40;99.90;;;;;;5021550;28;20053;-79
2022/07/03 08:28:33;;;;;;;4.68;1.98;;;22.50;99.90;;;;;;5014478;28;20037;-80
2022/07/03 08:30:58;;;;;;;3.80;2.05;;;22.60;99.90;;;;;;5048089;28;20521;-80
2022/07/03 08:33:24;;;;;;;5.00;1.98;;;22.60;99.90;;;;;;5003747;28;20073;-80
2022/07/03 08:35:50;;;;;;;2.47;1.80;;;22.70;99.90;;;;;;5027687;28;20107;-79
2022/07/03 08:38:16;;;;;;;4.13;2.00;;;22.80;99.90;;;;;;5044834;28;20560;-79
2022/07/03 08:40:44;;;;;;;3.60;2.20;;;22.80;99.80;;;;;;5002499;28;21106;-80
2022/07/03 08:43:10;;;;;;;3.40;2.10;;;22.90;99.70;;;;;;5027138;28;20116;-79
2022/07/03 08:45:37;;;;;;;3.13;1.90;;;23.00;99.90;;;;;;5028565;28;20115;-79
2022/07/03 08:48:05;;;;;;;4.38;2.20;;;23.10;99.80;;;;;;5051516;28;20037;-79
2022/07/03 08:50:33;;;;;;;2.83;1.75;;;23.20;99.50;;;;;;5016216;28;20042;-79
2022/07/03 08:53:00;;;;;;;6.72;2.10;;;23.20;99.00;;;;;;5029030;28;20038;-78
2022/07/03 08:55:26;;;;;;;4.35;2.03;;;23.20;98.70;;;;;;5048206;28;20498;-78
2022/07/03 08:57:55;;;;;;;3.40;1.70;;;23.30;98.60;;;;;;5006656;28;20131;-78
2022/07/03 09:00:21;;;;;;;3.15;1.77;;;23.10;98.40;;;;;;5026831;28;20414;-79
2022/07/03 09:02:49;;;;;;;3.95;2.13;;;23.00;99.10;;;;;;5050702;28;20510;-77
2022/07/03 09:05:16;;;;;;;4.47;2.10;;;22.90;99.20;;;;;;5050474;28;20037;-77
2022/07/03 09:07:43;;;;;;;5.00;2.55;;;22.90;99.20;;;;;;5028431;28;20130;-78
2022/07/03 09:10:14;;;;;;;2.97;2.38;;;23.00;99.30;;;;;;5019967;28;20048;-79
2022/07/03 09:12:45;;;;;;;5.30;2.42;;;23.00;99.50;;;;;;5022674;28;20506;-78
2022/07/03 09:15:11;;;;;;;4.93;2.58;;;23.00;99.60;;;;;;5040155;28;20037;-78
2022/07/03 09:17:37;;;;;;;3.88;2.70;;;23.10;99.80;;;;;;5022286;28;20048;-77
2022/07/03 09:20:05;;;;;;;6.80;3.00;;;23.00;99.70;;;;;;5031214;28;20041;-78
2022/07/03 09:22:36;;;;;;;7.70;3.03;;;23.00;99.80;;;;;;5011685;28;20057;-78
2022/07/03 09:25:14;;;;;;;5.60;2.90;;;23.00;99.30;;;;;;5008781;28;20091;-78
2022/07/03 09:27:52;;;;;;;4.00;2.40;;;22.80;99.20;;;;;;5012909;28;20117;-78
2022/07/03 09:30:19;;;;;;;2.50;2.00;;;22.90;99.00;;;;;;5031098;28;20513;-78
2022/07/03 09:32:47;;;;;;;4.35;1.92;;;23.10;99.40;;;;;;5041808;28;20083;-78
2022/07/03 09:35:14;;;;;;;5.47;2.08;;;23.30;99.10;;;;;;5044870;28;20045;-78
2022/07/03 09:37:47;;;;;;;4.88;2.25;;;23.30;98.70;;;;;;5040222;28;20532;-78
2022/07/03 09:40:12;;;;;;;3.03;2.10;;;23.30;98.30;;;;;;5012088;28;20057;-81
2022/07/03 09:42:38;;;;;;;4.10;2.17;;;23.30;98.10;;;;;;5004476;28;20111;-78
2022/07/03 09:45:04;;;;;;;2.83;2.15;;;23.40;98.50;;;;;;5032892;28;20464;-77
2022/07/03 09:47:30;;;;;;;3.38;2.30;;;23.60;98.80;;;;;;4997056;28;20038;-78
2022/07/03 09:49:58;;;;;;;4.25;2.88;;;23.60;99.10;;;;;;5002883;28;20352;-77
2022/07/03 09:52:28;;;;;;;4.13;2.63;;;23.60;98.90;;;;;;5017249;28;20446;-77
2022/07/03 09:54:55;;;;;;;4.30;2.40;;;23.50;98.90;;;;;;5010723;28;20061;-78
2022/07/03 09:57:20;;;;;;;3.55;2.33;;;23.20;99.10;;;;;;5039312;28;20045;-78
2022/07/03 09:59:46;;;;;;;5.43;2.20;;;23.00;99.20;;;;;;5029063;28;20053;-80
2022/07/03 10:02:12;;;;;;;4.85;2.40;;;22.60;99.20;;;;;;5030346;28;20039;-77
2022/07/03 10:04:38;;;;;;;5.15;2.63;;;22.60;99.70;;;;;;5019734;28;20564;-77
2022/07/03 10:07:03;;;;;;;4.18;2.00;;;22.60;99.70;;;;;;5042424;28;20516;-77
2022/07/03 10:09:34;;;;;;;6.22;2.30;;;22.60;99.50;;;;;;5013593;28;20100;-77
2022/07/03 10:12:03;;;;;;;4.35;2.15;;;22.60;99.10;;;;;;5030236;28;20103;-77
2022/07/03 10:14:31;;;;;;;4.65;1.77;;;22.50;99.20;;;;;;5017424;28;20046;-77
2022/07/03 10:17:01;;;;;;;3.83;1.80;;;22.60;99.20;;;;;;5026449;28;20081;-78
2022/07/03 10:19:28;;;;;;;4.63;1.55;;;22.80;98.50;;;;;;5041291;28;20053;-77
2022/07/03 10:22:01;;;;;;;4.47;1.90;;;23.00;98.20;;;;;;5019473;28;20048;-77
2022/07/03 10:24:29;;;;;;;4.78;1.75;;;23.40;98.00;;;;;;5038802;28;20048;-77
2022/07/03 10:26:57;;;;;;;4.10;1.85;;;23.50;97.70;;;;;;5045494;28;20045;-77
2022/07/03 10:29:27;;;;;;;3.78;1.60;;;23.70;97.70;;;;;;5042770;28;20493;-78
2022/07/03 10:31:53;;;;;;;4.80;1.52;;;23.90;97.50;;;;;;5015859;28;20049;-77
2022/07/03 10:34:21;;;;;;;3.80;1.30;;;24.10;96.50;;;;;;5054373;28;20037;-78
2022/07/03 10:37:01;;;;;;;4.38;1.50;;;24.30;96.50;;;;;;5020518;28;20515;-79
2022/07/03 10:39:36;;;;;;;4.38;1.40;;;24.50;95.50;;;;;;5026558;28;20060;-78
2022/07/03 10:45:02;;;;;;;2.03;0.90;;;24.50;95.20;;;;;;5027828;28;20235;-78
2022/07/03 10:47:44;;;;;;;2.17;1.13;;;24.60;94.70;;;;;;5018470;28;20069;-78
2022/07/03 10:50:13;;;;;;;2.03;1.25;;;24.50;93.90;;;;;;5024320;28;20038;-78
2022/07/03 10:52:40;;;;;;;2.80;1.40;;;24.40;94.20;;;;;;5026134;28;20041;-78
2022/07/03 10:55:07;;;;;;;3.40;1.50;;;24.50;94.40;;;;;;5046135;28;20055;-78
2022/07/03 10:57:35;;;;;;;2.83;1.30;;;24.50;94.20;;;;;;5009317;28;20043;-79
2022/07/03 11:00:01;;;;;;;5.22;1.52;;;24.60;94.40;;;;;;4991161;28;20049;-79
2022/07/03 11:02:31;;;;;;;15.98;1.75;;;24.70;94.30;;;;;;5049965;28;20252;-79
2022/07/03 11:04:57;;;;;;;3.88;1.05;;;24.80;94.00;;;;;;5018467;28;20041;-79
2022/07/03 11:07:27;;;;;;;4.97;1.48;;;24.80;93.80;;;;;;5038879;28;20568;-78
2022/07/03 11:10:12;;;;;;;1.58;1.05;;;24.90;93.90;;;;;;4995777;28;20042;-79
2022/07/03 11:12:56;;;;;;;2.45;1.27;;;25.00;93.00;;;;;;5009502;28;20038;-78
2022/07/03 11:15:24;;;;;;;2.03;1.13;;;25.20;93.30;;;;;;5015646;28;20217;-79
2022/07/03 11:18:11;;;;;;;3.35;1.35;;;25.20;93.70;;;;;;5029053;28;20050;-78
2022/07/03 11:20:41;;;;;;;2.13;1.35;;;24.90;92.90;;;;;;5040556;28;20048;-78
2022/07/03 11:23:10;;;;;;;1.75;1.10;;;24.50;92.60;;;;;;5018543;28;20076;-78
2022/07/03 11:25:49;;;;;;;3.45;1.23;;;24.40;93.10;;;;;;5001601;28;20041;-78
2022/07/03 11:28:33;;;;;;;1.30;1.10;;;24.40;93.60;;;;;;5017251;28;20045;-78
2022/07/03 11:31:13;;;;;;;1.88;1.10;;;24.60;92.20;;;;;;5034738;28;20486;-78
2022/07/03 11:33:42;;;;;;;3.55;1.25;;;24.50;92.50;;;;;;5024862;28;20041;-79
2022/07/03 11:36:25;;;;;;;2.75;1.40;;;24.30;91.20;;;;;;5025437;28;20040;-79
2022/07/03 11:39:00;;;;;;;1.27;0.85;;;24.30;92.40;;;;;;5027135;28;20049;-79
2022/07/03 11:41:36;;;;;;;2.30;1.33;;;24.50;93.50;;;;;;5021324;28;20057;-78
2022/07/03 11:44:07;;;;;;;4.30;1.13;;;24.70;92.40;;;;;;4994602;28;20053;-79
2022/07/03 11:46:38;;;;;;;2.85;1.35;;;24.70;92.40;;;;;;5030352;28;20125;-79
2022/07/03 11:49:15;;;;;;;1.73;1.00;;;24.80;92.20;;;;;;5008721;28;20483;-79
2022/07/03 11:51:52;;;;;;;2.30;1.23;;;24.90;92.00;;;;;;5026183;28;20041;-78
2022/07/03 11:54:18;;;;;;;3.38;0.90;;;25.00;92.00;;;;;;5027347;28;20091;-78
2022/07/03 11:56:44;;;;;;;2.72;1.50;;;24.90;92.60;;;;;;5010481;28;20394;-79
2022/07/03 11:59:09;;;;;;;1.55;1.10;;;25.10;92.70;;;;;;5001693;28;20033;-79
2022/07/03 12:01:37;;;;;;;1.85;0.80;;;25.30;92.40;;;;;;5012136;28;20044;-81
2022/07/03 12:04:06;;;;;;;1.65;1.20;;;25.20;91.70;;;;;;5025641;28;20107;-80
2022/07/03 12:06:43;;;;;;;3.67;1.25;;;25.10;91.60;;;;;;5010135;28;20037;-79
2022/07/03 12:09:21;;;;;;;3.03;1.30;;;25.20;91.50;;;;;;5020770;28;20060;-80
2022/07/03 12:12:03;;;;;;;5.45;1.23;;;25.00;91.00;;;;;;5033047;28;20049;-80
2022/07/03 12:14:50;;;;;;;1.90;1.08;;;24.80;91.60;;;;;;5016944;28;20033;-79
2022/07/03 12:17:19;;;;;;;1.55;1.25;;;24.80;92.30;;;;;;5013615;28;20071;-79
2022/07/03 12:19:56;;;;;;;2.70;1.00;;;24.90;92.40;;;;;;5031673;28;20037;-79
2022/07/03 12:22:41;;;;;;;1.33;0.98;;;24.80;91.70;;;;;;5031944;28;20379;-79
2022/07/03 12:25:09;;;;;;;1.27;1.00;;;24.70;91.40;;;;;;5040628;28;20044;-79
2022/07/03 12:27:39;;;;;;;4.25;1.40;;;24.80;92.00;;;;;;5022382;28;20503;-79
2022/07/03 12:30:07;;;;;;;2.70;1.40;;;24.90;91.90;;;;;;5010067;28;20034;-80
2022/07/03 12:32:33;;;;;;;1.75;0.95;;;24.80;91.50;;;;;;5008803;28;20064;-80
2022/07/03 12:35:00;;;;;;;2.08;1.10;;;25.00;91.70;;;;;;5013132;28;20080;-79
2022/07/03 12:37:37;;;;;;;1.65;0.77;;;25.10;91.80;;;;;;5025114;28;20057;-80
2022/07/03 12:40:05;;;;;;;2.00;0.90;;;25.30;91.20;;;;;;5020705;28;20052;-80
2022/07/03 12:42:41;;;;;;;2.90;1.17;;;25.50;91.80;;;;;;5021051;28;20484;-79
2022/07/03 12:45:11;;;;;;;1.17;0.80;;;25.60;91.20;;;;;;5027754;28;20038;-79
2022/07/03 12:47:37;;;;;;;4.45;1.10;;;25.70;89.40;;;;;;5028341;28;20524;-79
2022/07/03 12:50:05;;;;;;;1.65;1.00;;;25.70;90.50;;;;;;5025885;28;20414;-79
2022/07/03 12:52:33;;;;;;;2.38;0.90;;;25.80;90.20;;;;;;5005931;28;20060;-79
2022/07/03 12:55:00;;;;;;;1.48;0.85;;;25.80;90.10;;;;;;5036847;28;20042;-79
2022/07/03 13:00:19;;;;;;;1.88;1.00;;;25.80;90.00;;;;;;5017875;28;20416;-79
2022/07/03 13:02:47;;;;;;;2.92;0.90;;;25.90;89.60;;;;;;5014517;28;20033;-79
2022/07/03 13:05:23;;;;;;;1.70;1.00;;;26.00;89.70;;;;;;5015845;28;20034;-79
2022/07/03 13:07:55;;;;;;;5.00;1.10;;;26.10;88.80;;;;;;5030938;28;20175;-79
2022/07/03 13:10:22;;;;;;;;;;;26.20;88.40;;;;;;5031128;28;20082;-79
2022/07/03 13:12:54;;;;;;;2.78;1.15;;;26.40;90.00;;;;;;5019237;28;19917;-79